Time;durP1;ratioP1;P1;durP2;ratioP2;P2;SDS_P1;SDS_P2;PMS_P1;PMS_P2;Temp;Humidity;BMP_temperature;BMP_pressure;BME280_temperature;BME280_humidity;BME280_pressure;Samples;Min_cycle;Max_cycle;Signal;HPM_P1;HPM_P2
2021/06/20 00:02:06;;;;;;;10.13;7.50;;;25.10;86.90;;;;;;6255196;28;20046;-79
2021/06/20 00:05:11;;;;;;;21.02;8.73;;;25.30;85.10;;;;;;6256644;28;20573;-78
2021/06/20 00:08:14;;;;;;;21.02;8.23;;;25.50;84.00;;;;;;6250992;28;20050;-79
2021/06/20 00:11:16;;;;;;;16.15;7.40;;;25.70;83.60;;;;;;6258341;28;20098;-79
2021/06/20 00:14:18;;;;;;;14.43;9.25;;;25.90;83.70;;;;;;6257099;28;20111;-78
2021/06/20 00:17:20;;;;;;;13.15;9.55;;;26.00;83.50;;;;;;6255893;28;20049;-80
2021/06/20 00:20:25;;;;;;;28.38;10.70;;;26.10;83.70;;;;;;6255741;28;20522;-79
2021/06/20 00:23:28;;;;;;;19.17;8.10;;;26.20;83.50;;;;;;6256014;28;20045;-79
2021/06/20 00:26:30;;;;;;;17.10;7.45;;;26.20;82.90;;;;;;6255891;28;20125;-80
2021/06/20 00:29:32;;;;;;;18.48;9.32;;;26.20;82.60;;;;;;6256079;28;20057;-80
2021/06/20 00:32:34;;;;;;;20.02;8.65;;;26.20;82.80;;;;;;6255979;28;20048;-80
2021/06/20 00:35:36;;;;;;;18.20;10.15;;;26.20;83.20;;;;;;6255107;28;20135;-80
2021/06/20 00:38:39;;;;;;;16.23;7.13;;;26.20;83.10;;;;;;6254555;28;20049;-81
2021/06/20 00:41:41;;;;;;;23.52;10.57;;;26.20;83.60;;;;;;6254247;28;20076;-80
2021/06/20 00:44:44;;;;;;;23.38;8.00;;;26.20;83.80;;;;;;6255764;28;20052;-79
2021/06/20 00:47:46;;;;;;;19.48;7.85;;;26.10;82.70;;;;;;6254312;28;20069;-80
2021/06/20 00:50:49;;;;;;;34.90;8.55;;;26.10;80.40;;;;;;6254308;28;20084;-81
2021/06/20 00:53:52;;;;;;;24.23;8.18;;;26.10;77.10;;;;;;6255067;28;20049;-80
2021/06/20 00:56:54;;;;;;;26.60;7.32;;;26.10;77.10;;;;;;6256198;28;20431;-80
2021/06/20 00:59:56;;;;;;;44.58;9.30;;;26.10;77.40;;;;;;6256575;28;20511;-79
2021/06/20 01:02:57;;;;;;;24.67;7.78;;;26.00;78.50;;;;;;6255212;28;20056;-79
2021/06/20 01:06:00;;;;;;;21.40;8.38;;;25.90;79.20;;;;;;6256025;28;20088;-80
2021/06/20 01:09:04;;;;;;;19.67;8.85;;;25.80;79.40;;;;;;6255504;28;20061;-79
2021/06/20 01:12:07;;;;;;;21.63;7.43;;;25.70;79.60;;;;;;6256495;28;20065;-78
2021/06/20 01:15:11;;;;;;;20.33;6.85;;;25.50;80.00;;;;;;6253777;28;20085;-80
2021/06/20 01:18:13;;;;;;;30.58;7.68;;;25.40;80.60;;;;;;6253328;28;20510;-79
2021/06/20 01:21:15;;;;;;;18.33;7.07;;;25.30;80.70;;;;;;6256106;28;20077;-78
2021/06/20 01:24:19;;;;;;;19.48;6.82;;;25.20;81.10;;;;;;6252947;28;20069;-79
2021/06/20 01:27:23;;;;;;;16.73;7.95;;;25.10;81.50;;;;;;6251186;28;20062;-78
2021/06/20 01:30:27;;;;;;;21.83;7.47;;;25.00;81.80;;;;;;6258554;28;20099;-79
2021/06/20 01:33:29;;;;;;;22.27;7.45;;;24.90;81.90;;;;;;6260318;28;20042;-79
2021/06/20 01:36:31;;;;;;;12.75;5.30;;;24.70;82.00;;;;;;6257591;28;20515;-80
2021/06/20 01:39:34;;;;;;;21.05;6.22;;;24.70;82.10;;;;;;6256204;28;20053;-79
2021/06/20 01:42:37;;;;;;;16.90;5.15;;;24.60;81.80;;;;;;6255194;28;20045;-79
2021/06/20 01:45:41;;;;;;;15.95;6.47;;;24.50;82.10;;;;;;6257625;28;20482;-79
2021/06/20 01:48:43;;;;;;;18.13;5.22;;;24.40;82.10;;;;;;6233193;28;20093;-79
2021/06/20 01:51:45;;;;;;;17.20;5.20;;;24.40;82.50;;;;;;6234510;28;20045;-79
2021/06/20 01:54:52;;;;;;;20.00;6.80;;;24.30;83.10;;;;;;6241060;28;20050;-78
2021/06/20 01:57:54;;;;;;;22.10;7.03;;;24.20;83.30;;;;;;6238410;28;20124;-78
2021/06/20 02:00:57;;;;;;;17.85;6.45;;;24.20;83.90;;;;;;6241795;28;20053;-78
2021/06/20 02:03:59;;;;;;;12.90;4.63;;;24.20;84.40;;;;;;6239567;28;20046;-78
2021/06/20 02:07:01;;;;;;;22.83;6.32;;;24.20;84.70;;;;;;6239686;28;20050;-78
2021/06/20 02:10:09;;;;;;;28.55;7.47;;;24.10;84.80;;;;;;6236203;28;20042;-78
2021/06/20 02:13:11;;;;;;;15.32;5.20;;;24.00;85.00;;;;;;6238488;28;20097;-79
2021/06/20 02:16:13;;;;;;;17.13;6.90;;;24.00;85.50;;;;;;6238548;28;20049;-78
2021/06/20 02:19:14;;;;;;;15.48;6.95;;;23.90;85.80;;;;;;6241491;28;20068;-77
2021/06/20 02:22:16;;;;;;;14.38;5.40;;;23.90;85.70;;;;;;6240587;28;20046;-78
2021/06/20 02:25:21;;;;;;;13.85;6.07;;;23.80;85.80;;;;;;6239403;28;20053;-78
2021/06/20 02:28:23;;;;;;;22.20;6.80;;;23.70;86.20;;;;;;6239855;28;20096;-78
2021/06/20 02:31:25;;;;;;;23.58;6.13;;;23.70;86.50;;;;;;6238363;28;20605;-79
2021/06/20 02:34:27;;;;;;;15.80;6.25;;;23.70;86.70;;;;;;6239620;28;20108;-77
2021/06/20 02:37:31;;;;;;;17.02;6.75;;;23.60;86.90;;;;;;6240061;28;20494;-79
2021/06/20 02:40:34;;;;;;;16.20;6.43;;;23.60;87.40;;;;;;6243477;28;20046;-78
2021/06/20 02:43:36;;;;;;;19.92;5.95;;;23.60;87.60;;;;;;6239320;28;20503;-78
2021/06/20 02:46:38;;;;;;;11.93;4.75;;;23.50;87.60;;;;;;6240552;28;20069;-78
2021/06/20 02:49:41;;;;;;;19.48;6.55;;;23.50;87.70;;;;;;6239171;28;20077;-78
2021/06/20 02:52:44;;;;;;;16.98;5.80;;;23.50;87.60;;;;;;6239898;28;20046;-79
2021/06/20 02:55:47;;;;;;;14.98;6.53;;;23.50;87.20;;;;;;6240506;28;20125;-79
2021/06/20 02:58:49;;;;;;;19.70;5.93;;;23.50;87.40;;;;;;6241705;28;20129;-79
2021/06/20 03:01:51;;;;;;;12.60;4.55;;;23.40;87.30;;;;;;6241168;28;20100;-79
2021/06/20 03:04:54;;;;;;;12.18;5.30;;;23.40;87.50;;;;;;6240820;28;20116;-79
2021/06/20 03:07:56;;;;;;;11.55;5.90;;;23.30;87.90;;;;;;6239354;28;20065;-79
2021/06/20 03:10:59;;;;;;;15.32;5.53;;;23.20;88.10;;;;;;6239922;28;20140;-78
2021/06/20 03:14:01;;;;;;;17.75;6.53;;;23.20;88.20;;;;;;6240122;28;20562;-79
2021/06/20 03:17:04;;;;;;;10.38;7.25;;;23.20;88.70;;;;;;6239912;28;20117;-79
2021/06/20 03:20:08;;;;;;;11.45;5.07;;;23.10;88.90;;;;;;6237966;28;20054;-79
2021/06/20 03:23:11;;;;;;;16.58;5.38;;;23.10;89.50;;;;;;6239633;28;20614;-78
2021/06/20 03:26:15;;;;;;;22.60;5.72;;;23.00;89.40;;;;;;6239662;28;20046;-78
2021/06/20 03:29:17;;;;;;;11.32;4.32;;;23.00;88.40;;;;;;6239893;28;20104;-79
2021/06/20 03:32:21;;;;;;;9.15;4.65;;;23.00;89.30;;;;;;6230001;28;20128;-79
2021/06/20 03:35:23;;;;;;;12.07;4.80;;;23.00;88.60;;;;;;6227295;28;20419;-78
2021/06/20 03:38:25;;;;;;;16.88;4.95;;;23.10;88.50;;;;;;6232470;28;20041;-78
2021/06/20 03:41:28;;;;;;;16.48;5.18;;;23.20;87.60;;;;;;6229799;28;20128;-78
2021/06/20 03:44:30;;;;;;;12.45;4.72;;;23.20;87.30;;;;;;6231317;28;20144;-78
2021/06/20 03:47:32;;;;;;;15.05;4.43;;;23.20;86.80;;;;;;6231265;28;20073;-78
2021/06/20 03:50:34;;;;;;;16.48;4.93;;;23.30;85.70;;;;;;6233511;28;20061;-78
2021/06/20 03:53:35;;;;;;;8.45;2.85;;;23.40;84.40;;;;;;6233108;28;20109;-78
2021/06/20 03:56:39;;;;;;;17.13;6.78;;;23.40;83.30;;;;;;6234987;28;20148;-79
2021/06/20 03:59:40;;;;;;;7.57;2.30;;;23.50;82.90;;;;;;6234452;28;20046;-78
2021/06/20 04:02:42;;;;;;;7.80;3.67;;;23.50;82.00;;;;;;6233714;28;20443;-78
2021/06/20 04:05:44;;;;;;;10.07;3.47;;;23.60;82.00;;;;;;6230746;28;20635;-78
2021/06/20 04:08:46;;;;;;;8.30;2.70;;;23.70;80.80;;;;;;6228031;28;20049;-78
2021/06/20 04:11:49;;;;;;;6.45;2.72;;;23.80;80.00;;;;;;6230226;28;20050;-79
2021/06/20 04:14:51;;;;;;;5.82;3.00;;;23.80;79.60;;;;;;6239352;28;20093;-78
2021/06/20 04:17:53;;;;;;;7.32;3.13;;;23.90;79.10;;;;;;6253029;28;20531;-78
2021/06/20 04:20:56;;;;;;;21.23;4.07;;;24.00;79.40;;;;;;6250037;28;20057;-78
2021/06/20 04:23:57;;;;;;;5.50;2.60;;;24.10;79.10;;;;;;6251158;28;20044;-78
2021/06/20 04:27:01;;;;;;;8.60;2.92;;;24.30;78.20;;;;;;6252752;28;20052;-79
2021/06/20 04:30:03;;;;;;;11.35;3.83;;;24.40;77.80;;;;;;6255134;28;20052;-78
2021/06/20 04:33:05;;;;;;;7.40;2.65;;;24.60;78.00;;;;;;6251772;28;20152;-79
2021/06/20 04:36:07;;;;;;;15.45;3.53;;;24.60;78.00;;;;;;6247701;28;20492;-79
2021/06/20 04:39:09;;;;;;;8.70;3.05;;;24.70;78.20;;;;;;6247750;28;20096;-78
2021/06/20 04:42:13;;;;;;;8.45;2.67;;;24.70;78.30;;;;;;6245805;28;20096;-78
2021/06/20 04:45:15;;;;;;;9.23;3.10;;;24.70;78.50;;;;;;6253709;28;20486;-78
2021/06/20 04:48:17;;;;;;;12.23;4.03;;;24.70;78.80;;;;;;6256318;28;20092;-79
2021/06/20 04:51:19;;;;;;;7.95;2.97;;;24.60;78.60;;;;;;6256404;28;20081;-79
2021/06/20 04:54:20;;;;;;;9.90;2.97;;;24.60;78.90;;;;;;6250926;28;20083;-78
2021/06/20 04:57:25;;;;;;;6.88;2.80;;;24.60;78.80;;;;;;6252591;28;20142;-78
2021/06/20 05:00:28;;;;;;;5.10;2.83;;;24.60;78.60;;;;;;6256041;28;20049;-79
2021/06/20 05:03:29;;;;;;;8.88;2.30;;;24.60;78.90;;;;;;6257137;28;20038;-78
2021/06/20 05:06:31;;;;;;;10.02;2.33;;;24.50;78.00;;;;;;6252477;28;20049;-78
2021/06/20 05:09:33;;;;;;;3.83;2.60;;;24.60;77.90;;;;;;6256868;28;20535;-79
2021/06/20 05:12:36;;;;;;;10.85;2.92;;;24.60;77.60;;;;;;6261125;28;20046;-79
2021/06/20 05:15:38;;;;;;;7.93;4.63;;;24.70;76.80;;;;;;6260961;28;20041;-78
2021/06/20 05:18:40;;;;;;;4.88;2.55;;;24.70;76.90;;;;;;6259629;28;20064;-79
2021/06/20 05:21:43;;;;;;;9.00;2.30;;;24.70;76.60;;;;;;6253393;28;20041;-78
2021/06/20 05:24:45;;;;;;;6.82;2.53;;;24.90;76.10;;;;;;6254315;28;20076;-77
2021/06/20 05:27:48;;;;;;;10.20;4.57;;;25.10;75.20;;;;;;6257617;28;20063;-79
2021/06/20 05:30:50;;;;;;;4.82;2.70;;;25.30;74.40;;;;;;6262821;28;20088;-79
2021/06/20 05:33:52;;;;;;;5.68;2.80;;;25.70;74.00;;;;;;6259342;28;20111;-78
2021/06/20 05:36:54;;;;;;;8.80;3.72;;;26.10;73.00;;;;;;6238148;28;20052;-78
2021/06/20 05:39:56;;;;;;;13.45;2.85;;;26.30;71.80;;;;;;6238326;28;20096;-78
2021/06/20 05:42:59;;;;;;;5.50;2.00;;;26.40;70.30;;;;;;6249043;28;20557;-80
2021/06/20 05:46:01;;;;;;;12.00;2.95;;;26.40;70.00;;;;;;6261617;28;20502;-78
2021/06/20 05:49:03;;;;;;;7.13;2.70;;;26.30;70.50;;;;;;6263557;28;20111;-77
2021/06/20 05:52:05;;;;;;;14.77;4.15;;;26.20;70.60;;;;;;6264477;28;20077;-79
2021/06/20 05:55:08;;;;;;;5.80;2.30;;;26.30;69.10;;;;;;6263122;28;20118;-78
2021/06/20 05:58:12;;;;;;;7.00;2.58;;;26.20;68.90;;;;;;6260151;28;20105;-77
2021/06/20 06:01:14;;;;;;;11.30;3.97;;;26.20;68.90;;;;;;6255072;28;20427;-77
2021/06/20 06:04:15;;;;;;;6.70;2.08;;;26.20;68.30;;;;;;6242254;28;20243;-77
2021/06/20 06:07:17;;;;;;;4.88;2.33;;;26.30;67.80;;;;;;6254058;28;20511;-77
2021/06/20 06:10:19;;;;;;;6.43;2.72;;;26.60;66.30;;;;;;6255309;28;20111;-77
2021/06/20 06:13:22;;;;;;;9.02;1.98;;;26.90;65.60;;;;;;6255528;28;20077;-77
2021/06/20 06:16:24;;;;;;;5.57;2.40;;;27.20;64.50;;;;;;6254836;28;20099;-77
2021/06/20 06:19:26;;;;;;;7.43;2.08;;;27.30;63.50;;;;;;6255034;28;20191;-77
2021/06/20 06:22:28;;;;;;;5.47;1.98;;;27.40;62.80;;;;;;6247945;28;20406;-77
2021/06/20 06:25:30;;;;;;;6.20;1.63;;;27.40;62.50;;;;;;6255867;28;20164;-78
2021/06/20 06:28:33;;;;;;;5.47;1.67;;;27.30;62.50;;;;;;6254708;28;20042;-77
2021/06/20 06:31:36;;;;;;;8.38;1.40;;;27.20;62.60;;;;;;6255165;28;20049;-77
2021/06/20 06:34:39;;;;;;;5.05;1.55;;;27.20;61.70;;;;;;6255553;28;20045;-77
2021/06/20 06:37:41;;;;;;;6.72;1.63;;;27.20;61.40;;;;;;6254548;28;20128;-76
2021/06/20 06:40:43;;;;;;;5.63;1.40;;;27.20;61.60;;;;;;6249208;28;20124;-76
2021/06/20 06:43:46;;;;;;;5.28;1.67;;;27.20;62.70;;;;;;6249797;28;20045;-77
2021/06/20 06:46:48;;;;;;;4.22;1.33;;;27.30;61.20;;;;;;6250360;28;20118;-77
2021/06/20 06:49:50;;;;;;;7.38;3.00;;;27.40;60.90;;;;;;6250004;28;20152;-77
2021/06/20 06:52:52;;;;;;;3.30;1.45;;;27.50;61.60;;;;;;6250826;28;20049;-77
2021/06/20 06:55:54;;;;;;;3.90;1.70;;;27.60;60.90;;;;;;6251018;28;20108;-77
2021/06/20 06:58:59;;;;;;;5.05;1.60;;;27.60;61.20;;;;;;6250673;28;20208;-77
2021/06/20 07:02:00;;;;;;;3.88;1.70;;;27.60;60.80;;;;;;6251179;28;20041;-77
2021/06/20 07:05:02;;;;;;;4.75;1.75;;;27.50;60.80;;;;;;6250571;28;20555;-78
2021/06/20 07:08:05;;;;;;;7.60;1.92;;;27.50;61.10;;;;;;6250737;28;20072;-77
2021/06/20 07:11:07;;;;;;;5.10;1.75;;;27.40;61.90;;;;;;6249856;28;20426;-77
2021/06/20 07:14:10;;;;;;;3.95;1.88;;;27.30;61.60;;;;;;6250366;28;20065;-76
2021/06/20 07:17:13;;;;;;;2.28;1.83;;;27.40;61.10;;;;;;6252467;28;20056;-77
2021/06/20 07:20:16;;;;;;;4.07;1.88;;;27.50;61.20;;;;;;6250537;28;20111;-77
2021/06/20 07:23:18;;;;;;;2.28;1.10;;;27.40;61.10;;;;;;6240738;28;20037;-77
2021/06/20 07:26:20;;;;;;;3.90;1.30;;;27.40;60.70;;;;;;6251071;28;20046;-77
2021/06/20 07:29:23;;;;;;;4.55;2.22;;;27.40;61.20;;;;;;6250267;28;20143;-78
2021/06/20 07:32:25;;;;;;;4.22;2.00;;;27.30;61.50;;;;;;6249755;28;20049;-78
2021/06/20 07:35:27;;;;;;;5.93;1.85;;;27.30;61.70;;;;;;6250887;28;20073;-77
2021/06/20 07:38:29;;;;;;;6.25;1.73;;;27.30;62.00;;;;;;6249565;28;20406;-77
2021/06/20 07:41:31;;;;;;;4.50;1.80;;;27.30;62.20;;;;;;6249550;28;20131;-78
2021/06/20 07:44:34;;;;;;;4.70;1.83;;;27.20;62.60;;;;;;6249423;28;20048;-77
2021/06/20 07:47:37;;;;;;;3.08;1.73;;;27.30;62.00;;;;;;6249836;28;20132;-77
2021/06/20 07:50:39;;;;;;;4.93;1.98;;;27.30;61.90;;;;;;6249246;28;20037;-78
2021/06/20 07:53:40;;;;;;;1.63;1.50;;;27.40;61.10;;;;;;6248737;28;20052;-77
2021/06/20 07:56:42;;;;;;;4.55;2.00;;;27.40;61.00;;;;;;6250243;28;20050;-78
2021/06/20 07:59:46;;;;;;;9.10;2.45;;;27.40;61.20;;;;;;6249087;28;20646;-77
2021/06/20 08:02:48;;;;;;;3.72;1.73;;;27.40;60.50;;;;;;6249557;28;20168;-77
2021/06/20 08:05:50;;;;;;;4.65;1.90;;;27.30;60.90;;;;;;6249975;28;20050;-78
2021/06/20 08:08:55;;;;;;;3.92;1.90;;;27.20;60.80;;;;;;6250450;28;20156;-78
2021/06/20 08:11:57;;;;;;;2.22;1.75;;;27.10;61.70;;;;;;6250744;28;20045;-77
2021/06/20 08:15:00;;;;;;;3.92;1.95;;;26.90;62.40;;;;;;6249501;28;20065;-77
2021/06/20 08:18:02;;;;;;;6.07;2.25;;;26.90;61.50;;;;;;6249602;28;20126;-77
2021/06/20 08:21:05;;;;;;;7.18;2.00;;;26.90;62.30;;;;;;6249873;28;20057;-77
2021/06/20 08:24:08;;;;;;;5.45;1.98;;;26.90;61.90;;;;;;6239443;28;20446;-77
2021/06/20 08:27:10;;;;;;;4.88;2.22;;;26.80;62.20;;;;;;6248567;28;20053;-77
2021/06/20 08:30:15;;;;;;;2.17;1.70;;;26.60;62.30;;;;;;6249029;28;20049;-78
2021/06/20 08:33:16;;;;;;;6.50;2.20;;;26.40;65.10;;;;;;6249388;28;20527;-78
2021/06/20 08:36:18;;;;;;;4.40;1.98;;;26.30;64.90;;;;;;6249580;28;20418;-78
2021/06/20 08:39:20;;;;;;;3.20;2.10;;;26.30;64.60;;;;;;6248992;28;20131;-77
2021/06/20 08:42:22;;;;;;;26.63;3.80;;;26.20;64.70;;;;;;6248708;28;20551;-76
2021/06/20 08:45:26;;;;;;;2.45;1.95;;;26.20;67.00;;;;;;6249681;28;20129;-77
2021/06/20 08:48:28;;;;;;;5.82;2.50;;;26.30;66.00;;;;;;6249318;28;20499;-77
2021/06/20 08:51:30;;;;;;;6.72;1.92;;;26.30;66.00;;;;;;6248154;28;20166;-77
2021/06/20 08:54:33;;;;;;;6.40;2.67;;;26.40;65.90;;;;;;6247655;28;20045;-77
2021/06/20 08:57:36;;;;;;;6.70;2.10;;;26.40;66.70;;;;;;6247433;28;20061;-76
2021/06/20 09:00:40;;;;;;;2.28;1.60;;;26.40;66.40;;;;;;6247181;28;20069;-77
2021/06/20 09:03:45;;;;;;;6.82;2.30;;;26.50;65.20;;;;;;6246329;28;20119;-76
2021/06/20 09:06:50;;;;;;;5.75;2.00;;;26.70;64.30;;;;;;6247758;28;20517;-77
2021/06/20 09:09:52;;;;;;;6.15;2.15;;;26.80;64.30;;;;;;6247208;28;20126;-76
2021/06/20 09:12:56;;;;;;;3.85;1.98;;;26.90;64.90;;;;;;6247538;28;20499;-78
2021/06/20 09:16:01;;;;;;;7.93;2.65;;;27.00;63.90;;;;;;6248962;28;20047;-77
2021/06/20 09:19:03;;;;;;;7.57;1.55;;;27.10;63.90;;;;;;6247425;28;20073;-76
2021/06/20 09:22:08;;;;;;;3.60;2.30;;;27.20;62.70;;;;;;6248556;28;20119;-77
2021/06/20 09:25:14;;;;;;;5.57;1.75;;;27.30;62.50;;;;;;6237803;28;20064;-78
2021/06/20 09:28:15;;;;;;;4.28;2.53;;;27.40;62.10;;;;;;6245391;28;20053;-77
2021/06/20 09:31:19;;;;;;;6.47;2.97;;;27.60;62.00;;;;;;6247392;28;20049;-77
2021/06/20 09:34:21;;;;;;;3.58;1.70;;;27.60;61.80;;;;;;6247399;28;20045;-76
2021/06/20 09:37:22;;;;;;;14.68;2.22;;;27.90;62.10;;;;;;6247343;28;20080;-78
2021/06/20 09:40:27;;;;;;;9.60;3.78;;;28.10;60.50;;;;;;6246603;28;20111;-77
2021/06/20 09:43:30;;;;;;;6.85;2.08;;;28.10;61.00;;;;;;6246705;28;20122;-77
2021/06/20 09:46:34;;;;;;;7.65;2.22;;;27.50;61.40;;;;;;6247048;28;20037;-77
2021/06/20 09:49:37;;;;;;;3.88;2.45;;;27.30;63.00;;;;;;6246734;28;20063;-77
2021/06/20 09:52:38;;;;;;;3.67;2.22;;;27.20;64.10;;;;;;6246700;28;20542;-76
2021/06/20 09:55:40;;;;;;;4.53;2.20;;;27.00;63.30;;;;;;6246016;28;20058;-77
2021/06/20 09:58:44;;;;;;;2.92;2.05;;;26.70;64.50;;;;;;6245978;28;20513;-77
2021/06/20 10:01:47;;;;;;;2.80;2.40;;;26.60;65.40;;;;;;6246372;28;20057;-77
2021/06/20 10:04:49;;;;;;;4.35;2.28;;;26.50;65.70;;;;;;6246625;28;20123;-77
2021/06/20 10:07:51;;;;;;;4.55;1.55;;;26.70;66.00;;;;;;6245984;28;20065;-77
2021/06/20 10:10:53;;;;;;;13.98;11.07;;;27.20;65.30;;;;;;6245925;28;20454;-77
2021/06/20 10:13:54;;;;;;;6.30;3.03;;;27.70;63.80;;;;;;6248570;28;20127;-77
2021/06/20 10:17:06;;;;;;;7.20;3.13;;;27.90;63.50;;;;;;6251281;28;20676;-77
2021/06/20 10:20:12;;;;;;;7.18;2.90;;;28.00;62.40;;;;;;6250978;28;20049;-77
2021/06/20 10:23:19;;;;;;;11.25;3.15;;;27.80;61.60;;;;;;6249860;28;20045;-77
2021/06/20 10:26:24;;;;;;;3.90;2.97;;;27.70;62.90;;;;;;6245458;28;20053;-75
2021/06/20 10:29:28;;;;;;;6.72;2.33;;;27.70;62.30;;;;;;6227580;28;20069;-76
2021/06/20 10:32:39;;;;;;;3.97;3.33;;;27.90;61.40;;;;;;6241929;28;20642;-75
2021/06/20 10:35:42;;;;;;;2.97;2.35;;;28.00;62.20;;;;;;6234170;28;20058;-75
2021/06/20 10:38:46;;;;;;;4.55;3.47;;;28.30;62.10;;;;;;6227491;28;20042;-76
2021/06/20 10:41:48;;;;;;;9.93;4.07;;;28.70;61.20;;;;;;6228572;28;20503;-76
2021/06/20 10:44:52;;;;;;;4.65;3.63;;;29.00;59.30;;;;;;6226044;28;20524;-76
2021/06/20 10:47:57;;;;;;;6.13;2.63;;;29.00;60.00;;;;;;6225534;28;20046;-76
2021/06/20 10:51:00;;;;;;;14.55;10.75;;;29.00;59.80;;;;;;6225606;28;20138;-77
2021/06/20 10:54:02;;;;;;;12.60;9.25;;;29.00;59.50;;;;;;6225736;28;20100;-76
2021/06/20 10:57:05;;;;;;;10.85;4.63;;;28.60;60.60;;;;;;6226898;28;20148;-77
2021/06/20 11:00:08;;;;;;;11.80;4.60;;;28.30;62.30;;;;;;6225118;28;20053;-77
2021/06/20 11:03:13;;;;;;;4.93;3.35;;;28.40;61.50;;;;;;6225431;28;20101;-77
2021/06/20 11:06:17;;;;;;;8.50;3.45;;;28.50;60.70;;;;;;6224922;28;20397;-77
2021/06/20 11:09:20;;;;;;;7.97;3.60;;;28.80;60.90;;;;;;6225131;28;20640;-76
2021/06/20 11:12:22;;;;;;;4.05;2.20;;;29.00;59.30;;;;;;6225347;28;20041;-77
2021/06/20 11:15:25;;;;;;;6.57;2.78;;;29.00;59.60;;;;;;6249223;28;20456;-78
2021/06/20 11:18:29;;;;;;;7.05;3.33;;;28.80;61.10;;;;;;6251015;28;20063;-77
2021/06/20 11:21:31;;;;;;;6.15;2.22;;;28.70;62.40;;;;;;6255341;28;20209;-78
2021/06/20 11:24:35;;;;;;;4.97;2.42;;;28.60;60.70;;;;;;6253878;28;20550;-77
2021/06/20 11:27:37;;;;;;;5.15;2.67;;;28.40;62.80;;;;;;6250366;28;20138;-77
2021/06/20 11:30:39;;;;;;;4.53;2.88;;;28.50;63.00;;;;;;6250933;28;20121;-77
2021/06/20 11:33:42;;;;;;;6.95;2.42;;;28.60;62.50;;;;;;6252292;28;20515;-77
2021/06/20 11:36:44;;;;;;;4.65;3.42;;;28.90;62.20;;;;;;6250227;28;20497;-78
2021/06/20 11:39:48;;;;;;;7.93;3.17;;;29.40;61.00;;;;;;6250445;28;20199;-77
2021/06/20 11:42:51;;;;;;;7.40;3.50;;;29.80;60.80;;;;;;6250428;28;20042;-77
2021/06/20 11:45:53;;;;;;;4.72;2.78;;;30.10;58.30;;;;;;6250427;28;20049;-77
2021/06/20 11:48:59;;;;;;;6.38;2.83;;;30.20;58.20;;;;;;6250166;28;20115;-77
2021/06/20 11:52:02;;;;;;;9.52;3.38;;;30.00;58.20;;;;;;6253363;28;20049;-77
2021/06/20 11:55:16;;;;;;;5.55;3.20;;;30.00;58.00;;;;;;6252225;28;20042;-77
2021/06/20 11:58:18;;;;;;;3.45;2.53;;;29.80;58.50;;;;;;6250630;28;20577;-79
2021/06/20 12:01:20;;;;;;;8.63;3.38;;;29.70;59.70;;;;;;6250301;28;20084;-78
2021/06/20 12:04:24;;;;;;;7.05;3.05;;;30.00;60.10;;;;;;6248971;28;20127;-77
2021/06/20 12:07:27;;;;;;;9.25;3.42;;;30.10;58.00;;;;;;6248289;28;20524;-77
2021/06/20 12:10:29;;;;;;;6.95;2.83;;;30.10;59.30;;;;;;6248063;28;20041;-76
2021/06/20 12:13:39;;;;;;;4.93;2.72;;;30.10;58.70;;;;;;6248431;28;20542;-77
2021/06/20 12:16:48;;;;;;;6.10;2.70;;;30.00;59.40;;;;;;6248612;28;20096;-78
2021/06/20 12:19:51;;;;;;;5.93;2.83;;;30.20;59.20;;;;;;6247846;28;20565;-77
2021/06/20 12:22:53;;;;;;;7.22;3.15;;;30.20;58.80;;;;;;6248464;28;20049;-76
2021/06/20 12:25:56;;;;;;;8.60;3.63;;;30.20;58.80;;;;;;6247991;28;20136;-76
2021/06/20 12:28:59;;;;;;;12.00;3.78;;;30.20;59.30;;;;;;6239092;28;20050;-76
2021/06/20 12:32:04;;;;;;;8.85;4.45;;;30.30;59.70;;;;;;6248146;28;20077;-77
2021/06/20 12:35:08;;;;;;;4.88;3.60;;;30.50;59.20;;;;;;6248558;28;20457;-77
2021/06/20 12:38:16;;;;;;;4.70;2.97;;;30.40;60.50;;;;;;6248154;28;20124;-77
2021/06/20 12:41:19;;;;;;;7.40;3.60;;;30.80;59.50;;;;;;6249126;28;20535;-77
2021/06/20 12:44:21;;;;;;;6.68;3.20;;;31.00;58.70;;;;;;6248877;28;20045;-77
2021/06/20 12:47:31;;;;;;;6.90;3.10;;;31.10;58.20;;;;;;6267268;28;20033;-77
2021/06/20 12:50:35;;;;;;;7.15;4.07;;;31.10;58.10;;;;;;6278302;28;20029;-76
2021/06/20 12:53:39;;;;;;;10.20;4.55;;;30.80;57.80;;;;;;6276441;28;20045;-77
2021/06/20 12:56:41;;;;;;;6.50;2.95;;;30.60;58.80;;;;;;6279545;28;20041;-76
2021/06/20 12:59:44;;;;;;;12.85;4.88;;;30.40;59.60;;;;;;6279262;28;20064;-76
2021/06/20 13:02:50;;;;;;;10.05;3.80;;;30.30;60.30;;;;;;6279289;28;20036;-76
2021/06/20 13:05:54;;;;;;;11.27;4.78;;;30.40;60.00;;;;;;6279317;28;20093;-76
2021/06/20 13:08:56;;;;;;;9.75;3.50;;;30.20;60.50;;;;;;6279552;28;20068;-76
2021/06/20 13:11:57;;;;;;;13.68;3.20;;;30.20;61.90;;;;;;6278966;28;20044;-76
2021/06/20 13:14:59;;;;;;;12.50;3.45;;;30.30;60.90;;;;;;6277916;28;20025;-77
2021/06/20 13:18:01;;;;;;;8.82;3.97;;;30.40;60.90;;;;;;6278280;28;20060;-77
2021/06/20 13:21:05;;;;;;;8.70;3.00;;;30.50;60.30;;;;;;6261237;28;20049;-76
2021/06/20 13:24:09;;;;;;;13.52;4.28;;;30.50;59.60;;;;;;6247850;28;20080;-76
2021/06/20 13:27:11;;;;;;;11.32;4.93;;;30.30;58.70;;;;;;6248928;28;20054;-76
2021/06/20 13:30:15;;;;;;;13.75;4.20;;;30.50;58.80;;;;;;6240488;28;20081;-76
2021/06/20 13:33:17;;;;;;;14.60;4.95;;;30.50;59.80;;;;;;6247203;28;20060;-75
2021/06/20 13:36:20;;;;;;;15.57;5.72;;;30.70;59.10;;;;;;6247140;28;20045;-77
2021/06/20 13:39:21;;;;;;;20.52;3.20;;;30.70;58.40;;;;;;6248859;28;20057;-77
2021/06/20 13:42:23;;;;;;;11.45;5.10;;;30.70;58.40;;;;;;6249459;28;20492;-77
2021/06/20 13:45:26;;;;;;;8.98;3.30;;;30.80;59.00;;;;;;6247130;28;20049;-77
2021/06/20 13:48:28;;;;;;;15.07;3.88;;;30.90;58.00;;;;;;6248869;28;20096;-77
2021/06/20 13:51:31;;;;;;;17.35;4.82;;;30.80;56.50;;;;;;6252169;28;20518;-76
2021/06/20 13:54:33;;;;;;;15.18;3.50;;;30.90;55.80;;;;;;6251665;28;20092;-77
2021/06/20 13:57:35;;;;;;;14.00;4.65;;;30.90;57.40;;;;;;6252102;28;20134;-77
2021/06/20 14:00:37;;;;;;;14.98;3.75;;;30.90;57.30;;;;;;6251138;28;20242;-77
2021/06/20 14:03:39;;;;;;;13.13;4.18;;;31.00;56.90;;;;;;6251646;28;20053;-77
2021/06/20 14:06:42;;;;;;;22.27;4.45;;;31.00;54.70;;;;;;6251364;28;20099;-77
2021/06/20 14:09:44;;;;;;;17.20;5.72;;;30.80;54.10;;;;;;6251160;28;20144;-77
2021/06/20 14:12:46;;;;;;;16.55;3.67;;;30.50;52.70;;;;;;6250882;28;20081;-76
2021/06/20 14:15:48;;;;;;;15.60;3.50;;;30.20;55.20;;;;;;6250917;28;20140;-76
2021/06/20 14:18:50;;;;;;;19.58;5.05;;;30.10;54.70;;;;;;6250455;28;20045;-77
2021/06/20 14:21:53;;;;;;;20.85;4.30;;;30.00;56.80;;;;;;6250517;28;20396;-77
2021/06/20 14:24:55;;;;;;;15.95;4.05;;;29.90;56.30;;;;;;6250929;28;20127;-77
2021/06/20 14:27:57;;;;;;;19.25;5.20;;;29.80;56.40;;;;;;6251360;28;20662;-77
2021/06/20 14:30:58;;;;;;;9.88;4.30;;;29.80;55.90;;;;;;6242015;28;20179;-77
2021/06/20 14:34:00;;;;;;;22.85;5.57;;;29.70;55.80;;;;;;6250760;28;20203;-77
2021/06/20 14:37:04;;;;;;;17.88;4.57;;;29.50;56.50;;;;;;6251363;28;20119;-77
2021/06/20 14:40:07;;;;;;;14.80;3.53;;;29.40;56.20;;;;;;6250234;28;20076;-77
2021/06/20 14:43:09;;;;;;;23.10;4.40;;;29.20;56.30;;;;;;6251014;28;20124;-78
2021/06/20 14:46:11;;;;;;;11.10;2.63;;;29.10;56.00;;;;;;6250805;28;20060;-77
2021/06/20 14:49:13;;;;;;;26.30;5.07;;;29.00;58.80;;;;;;6253177;28;20526;-75
2021/06/20 14:52:18;;;;;;;18.25;5.18;;;28.90;60.00;;;;;;6253583;28;20087;-75
2021/06/20 14:55:20;;;;;;;25.58;5.35;;;28.70;61.00;;;;;;6250545;28;20503;-76
2021/06/20 14:58:22;;;;;;;11.50;3.50;;;28.60;59.60;;;;;;6252564;28;20045;-77
2021/06/20 15:01:23;;;;;;;15.90;3.70;;;28.50;60.70;;;;;;6251606;28;20049;-76
2021/06/20 15:04:26;;;;;;;14.35;3.20;;;28.30;61.50;;;;;;6252653;28;20073;-76
2021/06/20 15:07:29;;;;;;;16.30;5.13;;;28.30;63.20;;;;;;6252306;28;20045;-77
2021/06/20 15:10:31;;;;;;;20.88;4.60;;;28.20;61.90;;;;;;6251584;28;20134;-77
2021/06/20 15:13:32;;;;;;;18.83;5.10;;;28.10;62.60;;;;;;6252047;28;20130;-77
2021/06/20 15:16:36;;;;;;;24.35;6.25;;;28.00;63.50;;;;;;6250809;28;20176;-77
2021/06/20 15:19:38;;;;;;;17.77;3.78;;;27.90;64.40;;;;;;6250650;28;20050;-77
2021/06/20 15:22:41;;;;;;;17.83;4.20;;;27.80;65.20;;;;;;6250374;28;20072;-77
2021/06/20 15:25:43;;;;;;;29.70;11.75;;;27.80;65.50;;;;;;6250538;28;20522;-77
2021/06/20 15:28:54;;;;;;;17.98;4.95;;;27.80;64.80;;;;;;6250557;28;20084;-77
2021/06/20 15:32:14;;;;;;;14.50;3.13;;;27.80;66.30;;;;;;6243983;28;20057;-77
2021/06/20 15:35:18;;;;;;;13.20;4.32;;;27.80;67.20;;;;;;6225440;28;20046;-77
2021/06/20 15:38:21;;;;;;;21.88;6.55;;;27.70;66.00;;;;;;6228097;28;20058;-77
2021/06/20 15:41:26;;;;;;;12.60;4.22;;;27.70;67.10;;;;;;6228817;28;20049;-78
2021/06/20 15:44:27;;;;;;;20.67;4.15;;;27.80;68.50;;;;;;6228124;28;20128;-78